sensor_id;sensor_type;location;lat;lon;timestamp;P1;durP1;ratioP1;P2;durP2;ratioP2
4198;SDS011;2113;50.946;14.610;2023-05-06T07:46:36;29.17;;;20.80;;
4198;SDS011;2113;50.946;14.610;2023-05-06T07:49:05;26.67;;;18.52;;
4198;SDS011;2113;50.946;14.610;2023-05-06T07:51:33;35.15;;;21.08;;
4198;SDS011;2113;50.946;14.610;2023-05-06T07:54:01;27.42;;;20.20;;
4198;SDS011;2113;50.946;14.610;2023-05-06T07:56:30;26.13;;;19.90;;
4198;SDS011;2113;50.946;14.610;2023-05-06T07:58:59;29.35;;;19.90;;
4198;SDS011;2113;50.946;14.610;2023-05-06T08:01:27;23.55;;;18.58;;
4198;SDS011;2113;50.946;14.610;2023-05-06T08:03:57;27.88;;;19.83;;
4198;SDS011;2113;50.946;14.610;2023-05-06T08:06:26;26.17;;;19.27;;
4198;SDS011;2113;50.946;14.610;2023-05-06T08:08:54;28.88;;;18.98;;
4198;SDS011;2113;50.946;14.610;2023-05-06T08:11:22;25.30;;;17.75;;
4198;SDS011;2113;50.946;14.610;2023-05-06T08:13:51;24.60;;;16.92;;
4198;SDS011;2113;50.946;14.610;2023-05-06T08:16:19;25.95;;;17.48;;
4198;SDS011;2113;50.946;14.610;2023-05-06T08:18:51;22.52;;;17.52;;
4198;SDS011;2113;50.946;14.610;2023-05-06T08:21:20;24.88;;;16.98;;
4198;SDS011;2113;50.946;14.610;2023-05-06T08:23:48;24.48;;;19.60;;
4198;SDS011;2113;50.946;14.610;2023-05-06T08:26:16;27.73;;;18.60;;
4198;SDS011;2113;50.946;14.610;2023-05-06T08:28:45;28.08;;;19.45;;
4198;SDS011;2113;50.946;14.610;2023-05-06T08:31:13;25.67;;;18.60;;
4198;SDS011;2113;50.946;14.610;2023-05-06T08:33:41;27.17;;;19.77;;
4198;SDS011;2113;50.946;14.610;2023-05-06T08:36:09;26.75;;;20.98;;
4198;SDS011;2113;50.946;14.610;2023-05-06T08:38:39;24.48;;;17.40;;
4198;SDS011;2113;50.946;14.610;2023-05-06T08:41:16;28.52;;;19.70;;
4198;SDS011;2113;50.946;14.610;2023-05-06T08:43:46;26.42;;;19.58;;
4198;SDS011;2113;50.946;14.610;2023-05-06T08:46:16;28.88;;;21.95;;
4198;SDS011;2113;50.946;14.610;2023-05-06T08:48:45;29.15;;;22.27;;
4198;SDS011;2113;50.946;14.610;2023-05-06T08:51:13;35.00;;;22.63;;
4198;SDS011;2113;50.946;14.610;2023-05-06T08:53:45;30.50;;;22.40;;
4198;SDS011;2113;50.946;14.610;2023-05-06T08:56:16;33.35;;;24.33;;
4198;SDS011;2113;50.946;14.610;2023-05-06T08:58:45;33.92;;;25.73;;
4198;SDS011;2113;50.946;14.610;2023-05-06T09:01:15;37.45;;;26.80;;
4198;SDS011;2113;50.946;14.610;2023-05-06T09:03:44;38.70;;;25.02;;
4198;SDS011;2113;50.946;14.610;2023-05-06T09:06:15;29.75;;;24.40;;
4198;SDS011;2113;50.946;14.610;2023-05-06T09:08:44;35.05;;;25.75;;
4198;SDS011;2113;50.946;14.610;2023-05-06T09:11:22;34.15;;;25.30;;
4198;SDS011;2113;50.946;14.610;2023-05-06T09:14:06;30.70;;;24.23;;
4198;SDS011;2113;50.946;14.610;2023-05-06T09:16:36;32.90;;;23.58;;
4198;SDS011;2113;50.946;14.610;2023-05-06T09:19:05;29.55;;;22.13;;
4198;SDS011;2113;50.946;14.610;2023-05-06T09:21:33;29.80;;;23.23;;
4198;SDS011;2113;50.946;14.610;2023-05-06T09:24:04;30.30;;;23.48;;
4198;SDS011;2113;50.946;14.610;2023-05-06T09:26:34;33.90;;;24.15;;
4198;SDS011;2113;50.946;14.610;2023-05-06T09:29:04;37.58;;;23.58;;
4198;SDS011;2113;50.946;14.610;2023-05-06T09:31:33;28.13;;;22.63;;
4198;SDS011;2113;50.946;14.610;2023-05-06T09:34:07;29.73;;;20.65;;
4198;SDS011;2113;50.946;14.610;2023-05-06T09:36:36;28.60;;;21.70;;
4198;SDS011;2113;50.946;14.610;2023-05-06T09:39:06;31.52;;;24.00;;
4198;SDS011;2113;50.946;14.610;2023-05-06T09:41:36;40.10;;;26.00;;
4198;SDS011;2113;50.946;14.610;2023-05-06T09:44:04;32.08;;;23.25;;
4198;SDS011;2113;50.946;14.610;2023-05-06T09:46:33;39.17;;;25.10;;
4198;SDS011;2113;50.946;14.610;2023-05-06T09:49:01;33.97;;;26.63;;
4198;SDS011;2113;50.946;14.610;2023-05-06T09:51:30;37.38;;;25.20;;
4198;SDS011;2113;50.946;14.610;2023-05-06T09:53:58;36.80;;;23.65;;
4198;SDS011;2113;50.946;14.610;2023-05-06T09:56:29;32.10;;;23.58;;
4198;SDS011;2113;50.946;14.610;2023-05-06T09:58:58;32.97;;;25.42;;
4198;SDS011;2113;50.946;14.610;2023-05-06T10:01:29;32.13;;;22.10;;
4198;SDS011;2113;50.946;14.610;2023-05-06T10:04:04;32.80;;;22.63;;
4198;SDS011;2113;50.946;14.610;2023-05-06T10:06:36;33.30;;;22.48;;
4198;SDS011;2113;50.946;14.610;2023-05-06T10:09:07;33.90;;;21.85;;
4198;SDS011;2113;50.946;14.610;2023-05-06T10:11:38;28.73;;;21.33;;
4198;SDS011;2113;50.946;14.610;2023-05-06T10:14:07;38.40;;;23.05;;
4198;SDS011;2113;50.946;14.610;2023-05-06T10:16:36;33.75;;;24.35;;
4198;SDS011;2113;50.946;14.610;2023-05-06T10:19:06;41.17;;;26.60;;
4198;SDS011;2113;50.946;14.610;2023-05-06T10:21:36;40.28;;;27.45;;
4198;SDS011;2113;50.946;14.610;2023-05-06T10:24:10;39.40;;;26.05;;
4198;SDS011;2113;50.946;14.610;2023-05-06T10:26:44;37.65;;;26.40;;
4198;SDS011;2113;50.946;14.610;2023-05-06T10:29:13;43.00;;;26.60;;
4198;SDS011;2113;50.946;14.610;2023-05-06T10:31:43;39.38;;;27.75;;
4198;SDS011;2113;50.946;14.610;2023-05-06T10:34:15;43.83;;;26.77;;
4198;SDS011;2113;50.946;14.610;2023-05-06T10:36:47;40.60;;;27.67;;
4198;SDS011;2113;50.946;14.610;2023-05-06T10:39:18;43.45;;;26.42;;
4198;SDS011;2113;50.946;14.610;2023-05-06T10:41:49;41.00;;;26.70;;
4198;SDS011;2113;50.946;14.610;2023-05-06T10:44:17;37.20;;;25.33;;
4198;SDS011;2113;50.946;14.610;2023-05-06T10:47:26;41.90;;;24.33;;
4198;SDS011;2113;50.946;14.610;2023-05-06T10:52:46;39.17;;;27.23;;
4198;SDS011;2113;50.946;14.610;2023-05-06T10:55:24;40.40;;;26.38;;
4198;SDS011;2113;50.946;14.610;2023-05-06T10:57:54;41.75;;;26.55;;
4198;SDS011;2113;50.946;14.610;2023-05-06T11:00:25;44.28;;;25.85;;
4198;SDS011;2113;50.946;14.610;2023-05-06T11:02:54;44.08;;;27.35;;
4198;SDS011;2113;50.946;14.610;2023-05-06T11:05:23;48.00;;;29.70;;
4198;SDS011;2113;50.946;14.610;2023-05-06T11:07:52;45.45;;;29.25;;
4198;SDS011;2113;50.946;14.610;2023-05-06T11:10:35;47.38;;;29.02;;
4198;SDS011;2113;50.946;14.610;2023-05-06T11:13:23;40.40;;;25.80;;
4198;SDS011;2113;50.946;14.610;2023-05-06T11:15:55;43.50;;;28.15;;
4198;SDS011;2113;50.946;14.610;2023-05-06T11:18:39;46.65;;;27.15;;
4198;SDS011;2113;50.946;14.610;2023-05-06T11:24:05;45.65;;;26.98;;
4198;SDS011;2113;50.946;14.610;2023-05-06T11:26:33;41.20;;;25.48;;
4198;SDS011;2113;50.946;14.610;2023-05-06T11:29:02;41.72;;;27.10;;
4198;SDS011;2113;50.946;14.610;2023-05-06T11:31:36;42.92;;;26.13;;
4198;SDS011;2113;50.946;14.610;2023-05-06T11:34:07;40.95;;;27.33;;
4198;SDS011;2113;50.946;14.610;2023-05-06T11:36:44;39.92;;;27.15;;
4198;SDS011;2113;50.946;14.610;2023-05-06T11:39:24;38.38;;;25.85;;
4198;SDS011;2113;50.946;14.610;2023-05-06T11:41:56;41.75;;;27.05;;
4198;SDS011;2113;50.946;14.610;2023-05-06T11:44:26;41.60;;;27.52;;
4198;SDS011;2113;50.946;14.610;2023-05-06T11:46:58;34.85;;;24.80;;
4198;SDS011;2113;50.946;14.610;2023-05-06T11:49:27;45.72;;;27.10;;
4198;SDS011;2113;50.946;14.610;2023-05-06T11:51:55;42.00;;;27.33;;
4198;SDS011;2113;50.946;14.610;2023-05-06T11:54:24;40.97;;;27.65;;
4198;SDS011;2113;50.946;14.610;2023-05-06T11:56:54;35.42;;;24.65;;
4198;SDS011;2113;50.946;14.610;2023-05-06T11:59:29;46.13;;;27.70;;
4198;SDS011;2113;50.946;14.610;2023-05-06T12:02:01;45.17;;;25.55;;
4198;SDS011;2113;50.946;14.610;2023-05-06T12:04:38;42.08;;;25.45;;
4198;SDS011;2113;50.946;14.610;2023-05-06T12:07:07;42.20;;;25.27;;
4198;SDS011;2113;50.946;14.610;2023-05-06T12:09:37;43.10;;;25.60;;
4198;SDS011;2113;50.946;14.610;2023-05-06T12:12:07;47.15;;;27.05;;
4198;SDS011;2113;50.946;14.610;2023-05-06T12:14:37;40.72;;;25.73;;
4198;SDS011;2113;50.946;14.610;2023-05-06T12:17:08;38.88;;;25.52;;
4198;SDS011;2113;50.946;14.610;2023-05-06T12:19:36;45.83;;;26.80;;
4198;SDS011;2113;50.946;14.610;2023-05-06T12:22:18;39.70;;;25.83;;
4198;SDS011;2113;50.946;14.610;2023-05-06T12:24:47;36.22;;;24.52;;
4198;SDS011;2113;50.946;14.610;2023-05-06T12:27:27;46.42;;;27.70;;
4198;SDS011;2113;50.946;14.610;2023-05-06T12:29:56;46.50;;;27.73;;
4198;SDS011;2113;50.946;14.610;2023-05-06T12:32:27;41.63;;;25.10;;
4198;SDS011;2113;50.946;14.610;2023-05-06T12:34:55;33.65;;;21.27;;
4198;SDS011;2113;50.946;14.610;2023-05-06T12:37:26;37.83;;;24.83;;
4198;SDS011;2113;50.946;14.610;2023-05-06T12:39:56;41.80;;;25.63;;
4198;SDS011;2113;50.946;14.610;2023-05-06T12:42:34;35.60;;;23.60;;
4198;SDS011;2113;50.946;14.610;2023-05-06T12:45:12;35.60;;;23.30;;
4198;SDS011;2113;50.946;14.610;2023-05-06T12:47:51;40.63;;;24.77;;
4198;SDS011;2113;50.946;14.610;2023-05-06T12:50:30;37.22;;;23.58;;
4198;SDS011;2113;50.946;14.610;2023-05-06T12:52:59;43.83;;;23.13;;
4198;SDS011;2113;50.946;14.610;2023-05-06T12:55:28;33.30;;;23.13;;
4198;SDS011;2113;50.946;14.610;2023-05-06T12:57:57;30.25;;;21.25;;
4198;SDS011;2113;50.946;14.610;2023-05-06T13:00:26;37.35;;;22.48;;
4198;SDS011;2113;50.946;14.610;2023-05-06T13:02:55;38.20;;;25.17;;
4198;SDS011;2113;50.946;14.610;2023-05-06T13:05:24;42.10;;;24.00;;
4198;SDS011;2113;50.946;14.610;2023-05-06T13:07:53;39.38;;;24.00;;
4198;SDS011;2113;50.946;14.610;2023-05-06T13:10:21;42.35;;;26.15;;
4198;SDS011;2113;50.946;14.610;2023-05-06T13:12:50;39.13;;;23.45;;
4198;SDS011;2113;50.946;14.610;2023-05-06T13:15:18;36.33;;;23.67;;
4198;SDS011;2113;50.946;14.610;2023-05-06T13:17:47;36.38;;;22.50;;
4198;SDS011;2113;50.946;14.610;2023-05-06T13:20:17;35.13;;;22.42;;
4198;SDS011;2113;50.946;14.610;2023-05-06T13:22:45;33.22;;;22.48;;
4198;SDS011;2113;50.946;14.610;2023-05-06T13:25:20;32.15;;;23.13;;
4198;SDS011;2113;50.946;14.610;2023-05-06T13:27:49;30.75;;;21.80;;
4198;SDS011;2113;50.946;14.610;2023-05-06T13:30:17;35.40;;;22.42;;
4198;SDS011;2113;50.946;14.610;2023-05-06T13:32:45;34.25;;;20.33;;
4198;SDS011;2113;50.946;14.610;2023-05-06T13:35:14;28.98;;;18.27;;
4198;SDS011;2113;50.946;14.610;2023-05-06T13:37:43;32.40;;;21.60;;
4198;SDS011;2113;50.946;14.610;2023-05-06T13:40:12;34.78;;;19.95;;
4198;SDS011;2113;50.946;14.610;2023-05-06T13:42:41;31.13;;;20.70;;
4198;SDS011;2113;50.946;14.610;2023-05-06T13:45:10;29.05;;;19.77;;
4198;SDS011;2113;50.946;14.610;2023-05-06T13:47:38;23.58;;;16.45;;
4198;SDS011;2113;50.946;14.610;2023-05-06T13:50:08;24.05;;;16.75;;
4198;SDS011;2113;50.946;14.610;2023-05-06T13:52:37;23.75;;;17.50;;
4198;SDS011;2113;50.946;14.610;2023-05-06T13:55:07;24.55;;;16.60;;
4198;SDS011;2113;50.946;14.610;2023-05-06T13:57:36;25.10;;;17.85;;
4198;SDS011;2113;50.946;14.610;2023-05-06T14:00:05;24.58;;;18.08;;
4198;SDS011;2113;50.946;14.610;2023-05-06T14:02:36;22.85;;;15.45;;
4198;SDS011;2113;50.946;14.610;2023-05-06T14:05:05;23.30;;;14.75;;
4198;SDS011;2113;50.946;14.610;2023-05-06T14:07:35;23.42;;;15.52;;
4198;SDS011;2113;50.946;14.610;2023-05-06T14:10:08;20.40;;;14.18;;
4198;SDS011;2113;50.946;14.610;2023-05-06T14:12:37;18.88;;;13.32;;
4198;SDS011;2113;50.946;14.610;2023-05-06T14:15:06;21.48;;;14.25;;
4198;SDS011;2113;50.946;14.610;2023-05-06T14:17:35;27.80;;;18.20;;
4198;SDS011;2113;50.946;14.610;2023-05-06T14:20:04;31.75;;;17.33;;
4198;SDS011;2113;50.946;14.610;2023-05-06T14:22:35;23.60;;;16.90;;
4198;SDS011;2113;50.946;14.610;2023-05-06T14:25:03;26.88;;;16.70;;
4198;SDS011;2113;50.946;14.610;2023-05-06T14:27:33;22.42;;;17.83;;
4198;SDS011;2113;50.946;14.610;2023-05-06T14:30:02;27.60;;;17.40;;
4198;SDS011;2113;50.946;14.610;2023-05-06T14:32:35;30.60;;;19.50;;
4198;SDS011;2113;50.946;14.610;2023-05-06T14:35:03;26.75;;;17.60;;
4198;SDS011;2113;50.946;14.610;2023-05-06T14:37:32;28.70;;;20.15;;
4198;SDS011;2113;50.946;14.610;2023-05-06T14:40:00;26.45;;;17.55;;
4198;SDS011;2113;50.946;14.610;2023-05-06T14:42:30;26.42;;;19.45;;
4198;SDS011;2113;50.946;14.610;2023-05-06T14:45:00;24.60;;;17.02;;
4198;SDS011;2113;50.946;14.610;2023-05-06T14:47:28;22.60;;;16.45;;
4198;SDS011;2113;50.946;14.610;2023-05-06T14:49:56;26.35;;;16.45;;
4198;SDS011;2113;50.946;14.610;2023-05-06T14:52:25;24.98;;;15.85;;
4198;SDS011;2113;50.946;14.610;2023-05-06T14:54:53;26.10;;;17.13;;
4198;SDS011;2113;50.946;14.610;2023-05-06T14:57:21;28.27;;;15.70;;
4198;SDS011;2113;50.946;14.610;2023-05-06T14:59:49;24.65;;;17.02;;
4198;SDS011;2113;50.946;14.610;2023-05-06T15:02:19;29.42;;;17.63;;
4198;SDS011;2113;50.946;14.610;2023-05-06T15:04:48;30.95;;;18.90;;
4198;SDS011;2113;50.946;14.610;2023-05-06T15:07:16;25.67;;;15.55;;
4198;SDS011;2113;50.946;14.610;2023-05-06T15:09:44;30.60;;;18.50;;
4198;SDS011;2113;50.946;14.610;2023-05-06T15:12:13;28.70;;;16.50;;
4198;SDS011;2113;50.946;14.610;2023-05-06T15:14:41;28.30;;;17.50;;
4198;SDS011;2113;50.946;14.610;2023-05-06T15:17:09;30.33;;;16.98;;
4198;SDS011;2113;50.946;14.610;2023-05-06T15:19:40;26.17;;;17.00;;
4198;SDS011;2113;50.946;14.610;2023-05-06T15:22:08;29.13;;;18.00;;
4198;SDS011;2113;50.946;14.610;2023-05-06T15:24:37;28.50;;;17.15;;
4198;SDS011;2113;50.946;14.610;2023-05-06T15:27:05;32.85;;;18.58;;
4198;SDS011;2113;50.946;14.610;2023-05-06T15:29:36;29.10;;;18.52;;
4198;SDS011;2113;50.946;14.610;2023-05-06T15:32:05;26.17;;;16.05;;
4198;SDS011;2113;50.946;14.610;2023-05-06T15:34:33;23.80;;;17.30;;
4198;SDS011;2113;50.946;14.610;2023-05-06T15:37:03;29.02;;;18.95;;
4198;SDS011;2113;50.946;14.610;2023-05-06T15:39:33;29.48;;;17.75;;
4198;SDS011;2113;50.946;14.610;2023-05-06T15:42:03;25.83;;;18.05;;
4198;SDS011;2113;50.946;14.610;2023-05-06T15:44:32;31.45;;;18.45;;
4198;SDS011;2113;50.946;14.610;2023-05-06T15:47:00;29.50;;;16.02;;
4198;SDS011;2113;50.946;14.610;2023-05-06T15:49:29;30.65;;;17.75;;
4198;SDS011;2113;50.946;14.610;2023-05-06T15:52:00;27.70;;;17.30;;
4198;SDS011;2113;50.946;14.610;2023-05-06T15:54:30;29.90;;;17.10;;
4198;SDS011;2113;50.946;14.610;2023-05-06T15:57:03;32.92;;;17.85;;
4198;SDS011;2113;50.946;14.610;2023-05-06T15:59:32;27.00;;;18.00;;
4198;SDS011;2113;50.946;14.610;2023-05-06T16:02:01;31.55;;;18.40;;
4198;SDS011;2113;50.946;14.610;2023-05-06T16:04:32;32.17;;;18.48;;
4198;SDS011;2113;50.946;14.610;2023-05-06T16:07:00;33.70;;;18.60;;
4198;SDS011;2113;50.946;14.610;2023-05-06T16:09:28;30.35;;;19.58;;
4198;SDS011;2113;50.946;14.610;2023-05-06T16:11:58;36.00;;;20.25;;
4198;SDS011;2113;50.946;14.610;2023-05-06T16:14:27;32.13;;;17.85;;
4198;SDS011;2113;50.946;14.610;2023-05-06T16:16:55;31.63;;;17.58;;
4198;SDS011;2113;50.946;14.610;2023-05-06T16:19:23;29.55;;;18.35;;
4198;SDS011;2113;50.946;14.610;2023-05-06T16:21:51;33.15;;;17.33;;
4198;SDS011;2113;50.946;14.610;2023-05-06T16:24:20;32.13;;;18.35;;
4198;SDS011;2113;50.946;14.610;2023-05-06T16:26:49;26.10;;;16.52;;
4198;SDS011;2113;50.946;14.610;2023-05-06T16:29:18;28.92;;;16.25;;
4198;SDS011;2113;50.946;14.610;2023-05-06T16:31:47;28.20;;;17.73;;
4198;SDS011;2113;50.946;14.610;2023-05-06T16:34:15;32.03;;;18.40;;
4198;SDS011;2113;50.946;14.610;2023-05-06T16:36:43;34.17;;;16.52;;
4198;SDS011;2113;50.946;14.610;2023-05-06T16:39:12;38.40;;;17.80;;
4198;SDS011;2113;50.946;14.610;2023-05-06T16:41:40;31.50;;;16.38;;
4198;SDS011;2113;50.946;14.610;2023-05-06T16:44:09;28.05;;;16.77;;
4198;SDS011;2113;50.946;14.610;2023-05-06T16:46:38;29.40;;;18.23;;
4198;SDS011;2113;50.946;14.610;2023-05-06T16:49:06;31.65;;;18.48;;
4198;SDS011;2113;50.946;14.610;2023-05-06T16:51:35;28.90;;;18.13;;
4198;SDS011;2113;50.946;14.610;2023-05-06T16:54:03;41.17;;;18.52;;
4198;SDS011;2113;50.946;14.610;2023-05-06T16:56:32;33.58;;;20.05;;
4198;SDS011;2113;50.946;14.610;2023-05-06T16:59:18;32.90;;;18.75;;
4198;SDS011;2113;50.946;14.610;2023-05-06T17:01:48;37.75;;;20.63;;
4198;SDS011;2113;50.946;14.610;2023-05-06T17:04:16;36.72;;;18.77;;
4198;SDS011;2113;50.946;14.610;2023-05-06T17:06:44;34.25;;;18.63;;
4198;SDS011;2113;50.946;14.610;2023-05-06T17:09:13;31.50;;;15.80;;
4198;SDS011;2113;50.946;14.610;2023-05-06T17:11:42;38.25;;;18.30;;
4198;SDS011;2113;50.946;14.610;2023-05-06T17:14:10;29.67;;;15.73;;
4198;SDS011;2113;50.946;14.610;2023-05-06T17:16:41;27.27;;;15.80;;
4198;SDS011;2113;50.946;14.610;2023-05-06T17:19:11;27.83;;;15.48;;
4198;SDS011;2113;50.946;14.610;2023-05-06T17:21:39;26.27;;;16.40;;
4198;SDS011;2113;50.946;14.610;2023-05-06T17:24:08;26.95;;;14.82;;
4198;SDS011;2113;50.946;14.610;2023-05-06T17:26:36;25.08;;;13.95;;
4198;SDS011;2113;50.946;14.610;2023-05-06T17:29:05;23.90;;;13.98;;
4198;SDS011;2113;50.946;14.610;2023-05-06T17:31:34;29.15;;;15.20;;
4198;SDS011;2113;50.946;14.610;2023-05-06T17:34:03;28.58;;;15.52;;
4198;SDS011;2113;50.946;14.610;2023-05-06T17:36:32;27.25;;;15.07;;
4198;SDS011;2113;50.946;14.610;2023-05-06T17:39:00;26.48;;;16.02;;
4198;SDS011;2113;50.946;14.610;2023-05-06T17:41:30;29.40;;;16.17;;
4198;SDS011;2113;50.946;14.610;2023-05-06T17:43:59;29.52;;;15.82;;
4198;SDS011;2113;50.946;14.610;2023-05-06T17:46:27;33.42;;;16.90;;
4198;SDS011;2113;50.946;14.610;2023-05-06T17:48:55;33.10;;;20.30;;
4198;SDS011;2113;50.946;14.610;2023-05-06T17:51:25;33.30;;;16.02;;
4198;SDS011;2113;50.946;14.610;2023-05-06T17:53:54;33.55;;;19.38;;
4198;SDS011;2113;50.946;14.610;2023-05-06T17:56:22;29.55;;;17.15;;
4198;SDS011;2113;50.946;14.610;2023-05-06T17:58:51;34.50;;;18.77;;
4198;SDS011;2113;50.946;14.610;2023-05-06T18:01:19;30.65;;;18.42;;
4198;SDS011;2113;50.946;14.610;2023-05-06T18:03:47;30.00;;;18.23;;
4198;SDS011;2113;50.946;14.610;2023-05-06T18:06:16;29.35;;;16.40;;
4198;SDS011;2113;50.946;14.610;2023-05-06T18:08:45;27.75;;;16.95;;
4198;SDS011;2113;50.946;14.610;2023-05-06T18:11:14;31.30;;;18.23;;
4198;SDS011;2113;50.946;14.610;2023-05-06T18:13:44;30.23;;;18.27;;
4198;SDS011;2113;50.946;14.610;2023-05-06T18:16:12;31.65;;;16.65;;
4198;SDS011;2113;50.946;14.610;2023-05-06T18:18:41;33.88;;;19.02;;
4198;SDS011;2113;50.946;14.610;2023-05-06T18:21:10;32.20;;;20.33;;
4198;SDS011;2113;50.946;14.610;2023-05-06T18:23:38;30.23;;;19.52;;
4198;SDS011;2113;50.946;14.610;2023-05-06T18:26:08;32.55;;;19.65;;
4198;SDS011;2113;50.946;14.610;2023-05-06T18:28:38;37.30;;;18.75;;
4198;SDS011;2113;50.946;14.610;2023-05-06T18:31:06;30.85;;;18.60;;
4198;SDS011;2113;50.946;14.610;2023-05-06T18:33:35;35.80;;;21.88;;
4198;SDS011;2113;50.946;14.610;2023-05-06T18:36:03;27.92;;;17.23;;
4198;SDS011;2113;50.946;14.610;2023-05-06T18:38:32;25.90;;;15.52;;
4198;SDS011;2113;50.946;14.610;2023-05-06T18:41:00;29.13;;;15.40;;
4198;SDS011;2113;50.946;14.610;2023-05-06T18:43:29;26.25;;;16.70;;
4198;SDS011;2113;50.946;14.610;2023-05-06T18:45:58;26.60;;;16.10;;
4198;SDS011;2113;50.946;14.610;2023-05-06T18:48:26;28.98;;;15.73;;
4198;SDS011;2113;50.946;14.610;2023-05-06T18:51:07;31.90;;;18.52;;
4198;SDS011;2113;50.946;14.610;2023-05-06T18:53:36;33.10;;;16.33;;
4198;SDS011;2113;50.946;14.610;2023-05-06T18:56:05;28.00;;;15.38;;
4198;SDS011;2113;50.946;14.610;2023-05-06T18:58:35;38.08;;;16.58;;
4198;SDS011;2113;50.946;14.610;2023-05-06T19:01:05;29.20;;;14.48;;
4198;SDS011;2113;50.946;14.610;2023-05-06T19:03:35;35.10;;;17.75;;
4198;SDS011;2113;50.946;14.610;2023-05-06T19:06:05;27.33;;;14.40;;
4198;SDS011;2113;50.946;14.610;2023-05-06T19:08:35;26.52;;;13.48;;
4198;SDS011;2113;50.946;14.610;2023-05-06T19:11:03;22.33;;;13.13;;
4198;SDS011;2113;50.946;14.610;2023-05-06T19:13:31;31.60;;;15.75;;
4198;SDS011;2113;50.946;14.610;2023-05-06T19:16:01;27.52;;;16.02;;
4198;SDS011;2113;50.946;14.610;2023-05-06T19:18:29;25.88;;;16.80;;
4198;SDS011;2113;50.946;14.610;2023-05-06T19:20:58;29.40;;;16.95;;
4198;SDS011;2113;50.946;14.610;2023-05-06T19:23:26;27.33;;;13.27;;
4198;SDS011;2113;50.946;14.610;2023-05-06T19:25:54;27.40;;;15.73;;
4198;SDS011;2113;50.946;14.610;2023-05-06T19:28:22;26.17;;;15.00;;
4198;SDS011;2113;50.946;14.610;2023-05-06T19:30:51;20.85;;;12.18;;
4198;SDS011;2113;50.946;14.610;2023-05-06T19:33:20;31.25;;;16.65;;
4198;SDS011;2113;50.946;14.610;2023-05-06T19:35:49;30.23;;;16.30;;
4198;SDS011;2113;50.946;14.610;2023-05-06T19:38:17;28.58;;;17.00;;
4198;SDS011;2113;50.946;14.610;2023-05-06T19:40:46;24.25;;;12.60;;
4198;SDS011;2113;50.946;14.610;2023-05-06T19:43:14;23.77;;;13.35;;
4198;SDS011;2113;50.946;14.610;2023-05-06T19:45:42;23.73;;;14.75;;
4198;SDS011;2113;50.946;14.610;2023-05-06T19:48:10;25.40;;;13.23;;
4198;SDS011;2113;50.946;14.610;2023-05-06T19:50:41;20.50;;;12.50;;
4198;SDS011;2113;50.946;14.610;2023-05-06T19:53:10;22.73;;;14.38;;
4198;SDS011;2113;50.946;14.610;2023-05-06T19:55:38;30.83;;;16.83;;
4198;SDS011;2113;50.946;14.610;2023-05-06T19:58:06;27.90;;;16.33;;
4198;SDS011;2113;50.946;14.610;2023-05-06T20:00:34;30.75;;;18.77;;
4198;SDS011;2113;50.946;14.610;2023-05-06T20:03:02;28.83;;;16.77;;
4198;SDS011;2113;50.946;14.610;2023-05-06T20:05:31;30.70;;;16.30;;
4198;SDS011;2113;50.946;14.610;2023-05-06T20:08:01;21.10;;;12.27;;
4198;SDS011;2113;50.946;14.610;2023-05-06T20:10:29;30.27;;;18.67;;
4198;SDS011;2113;50.946;14.610;2023-05-06T20:12:57;22.70;;;13.98;;
4198;SDS011;2113;50.946;14.610;2023-05-06T20:15:26;25.88;;;14.98;;
4198;SDS011;2113;50.946;14.610;2023-05-06T20:17:55;28.15;;;15.68;;
4198;SDS011;2113;50.946;14.610;2023-05-06T20:20:23;38.88;;;21.73;;
4198;SDS011;2113;50.946;14.610;2023-05-06T20:23:01;22.95;;;15.00;;
4198;SDS011;2113;50.946;14.610;2023-05-06T20:25:29;28.90;;;15.70;;
4198;SDS011;2113;50.946;14.610;2023-05-06T20:27:57;29.85;;;16.27;;
4198;SDS011;2113;50.946;14.610;2023-05-06T20:30:26;20.75;;;11.93;;
4198;SDS011;2113;50.946;14.610;2023-05-06T20:32:54;24.60;;;15.05;;
4198;SDS011;2113;50.946;14.610;2023-05-06T20:35:23;25.00;;;14.88;;
4198;SDS011;2113;50.946;14.610;2023-05-06T20:37:51;30.60;;;16.58;;
4198;SDS011;2113;50.946;14.610;2023-05-06T20:40:21;35.00;;;17.77;;
4198;SDS011;2113;50.946;14.610;2023-05-06T20:42:49;28.77;;;16.85;;
4198;SDS011;2113;50.946;14.610;2023-05-06T20:45:18;31.60;;;18.13;;
4198;SDS011;2113;50.946;14.610;2023-05-06T20:47:46;29.67;;;15.73;;
4198;SDS011;2113;50.946;14.610;2023-05-06T20:50:15;33.70;;;18.70;;
4198;SDS011;2113;50.946;14.610;2023-05-06T20:52:44;37.78;;;18.13;;
4198;SDS011;2113;50.946;14.610;2023-05-06T20:55:13;36.00;;;18.27;;
4198;SDS011;2113;50.946;14.610;2023-05-06T20:57:43;37.30;;;19.02;;
4198;SDS011;2113;50.946;14.610;2023-05-06T21:00:12;36.72;;;19.45;;
4198;SDS011;2113;50.946;14.610;2023-05-06T21:02:40;42.05;;;20.92;;
4198;SDS011;2113;50.946;14.610;2023-05-06T21:05:08;31.48;;;18.52;;
4198;SDS011;2113;50.946;14.610;2023-05-06T21:07:37;32.55;;;17.63;;
4198;SDS011;2113;50.946;14.610;2023-05-06T21:10:06;33.53;;;16.88;;
4198;SDS011;2113;50.946;14.610;2023-05-06T21:12:36;30.15;;;15.75;;
4198;SDS011;2113;50.946;14.610;2023-05-06T21:15:07;28.13;;;14.07;;
4198;SDS011;2113;50.946;14.610;2023-05-06T21:17:36;24.83;;;13.25;;
4198;SDS011;2113;50.946;14.610;2023-05-06T21:20:05;22.27;;;11.18;;
4198;SDS011;2113;50.946;14.610;2023-05-06T21:22:35;27.88;;;14.15;;
4198;SDS011;2113;50.946;14.610;2023-05-06T21:25:04;22.60;;;11.65;;
4198;SDS011;2113;50.946;14.610;2023-05-06T21:27:33;26.40;;;13.18;;
4198;SDS011;2113;50.946;14.610;2023-05-06T21:30:01;24.48;;;12.60;;
4198;SDS011;2113;50.946;14.610;2023-05-06T21:32:31;18.33;;;11.38;;
4198;SDS011;2113;50.946;14.610;2023-05-06T21:35:00;22.65;;;12.55;;
4198;SDS011;2113;50.946;14.610;2023-05-06T21:37:30;24.17;;;12.23;;
4198;SDS011;2113;50.946;14.610;2023-05-06T21:39:58;23.42;;;12.45;;
4198;SDS011;2113;50.946;14.610;2023-05-06T21:42:30;22.70;;;12.98;;
4198;SDS011;2113;50.946;14.610;2023-05-06T21:44:58;27.55;;;13.02;;
4198;SDS011;2113;50.946;14.610;2023-05-06T21:47:26;26.13;;;13.07;;
4198;SDS011;2113;50.946;14.610;2023-05-06T21:49:56;21.83;;;12.77;;
4198;SDS011;2113;50.946;14.610;2023-05-06T21:52:24;21.38;;;11.15;;
4198;SDS011;2113;50.946;14.610;2023-05-06T21:54:53;23.63;;;11.98;;
4198;SDS011;2113;50.946;14.610;2023-05-06T21:57:21;21.85;;;11.57;;
4198;SDS011;2113;50.946;14.610;2023-05-06T21:59:50;20.90;;;11.45;;
4198;SDS011;2113;50.946;14.610;2023-05-06T22:02:18;26.42;;;14.60;;
4198;SDS011;2113;50.946;14.610;2023-05-06T22:04:46;20.75;;;12.52;;
4198;SDS011;2113;50.946;14.610;2023-05-06T22:07:16;18.88;;;12.05;;
4198;SDS011;2113;50.946;14.610;2023-05-06T22:09:44;25.27;;;12.70;;
4198;SDS011;2113;50.946;14.610;2023-05-06T22:12:12;20.60;;;11.23;;
4198;SDS011;2113;50.946;14.610;2023-05-06T22:14:41;25.98;;;13.02;;
4198;SDS011;2113;50.946;14.610;2023-05-06T22:17:09;19.67;;;11.70;;
4198;SDS011;2113;50.946;14.610;2023-05-06T22:19:38;19.00;;;11.48;;
4198;SDS011;2113;50.946;14.610;2023-05-06T22:22:07;24.05;;;12.57;;
4198;SDS011;2113;50.946;14.610;2023-05-06T22:24:36;20.13;;;10.88;;
4198;SDS011;2113;50.946;14.610;2023-05-06T22:27:05;22.15;;;13.10;;
4198;SDS011;2113;50.946;14.610;2023-05-06T22:29:33;24.67;;;11.90;;
4198;SDS011;2113;50.946;14.610;2023-05-06T22:32:01;23.85;;;12.63;;
4198;SDS011;2113;50.946;14.610;2023-05-06T22:34:30;22.27;;;12.35;;
4198;SDS011;2113;50.946;14.610;2023-05-06T22:36:58;28.35;;;14.52;;
4198;SDS011;2113;50.946;14.610;2023-05-06T22:39:26;25.83;;;13.55;;